Nearby METAR Reports

 

KGRB - Ashwaubenon, Wisconsin, USA
Distance from station: NW 5mi, 8km
Updated: Wed, 28-Oct-2020 4:53am CDT
NOT Current
Overcast
Overcast
 Wind from SW
Wind: SW 15 mph , 24 km/h, Gust: 26 mph , 43 km/h
Temperature: 34°F , 1°C
Wind Chill: 24°F , -4°C
Dew Point: 19°F , -7°C
Humidity: 56%
Barometer: 29.93 inHg , 1013.5 hPa
Clouds: Overcast
Visibility: 10 miles , 16 km
Cloud details: Overcast 7000 ft
2020/10/28 09:53 KGRB 280953Z AUTO 23013G23KT 10SM OVC070 01/M07 A2993 RMK AO2 SLP142 T00111072
KATW - Appleton/Outagam, Wisconsin, USA
Distance from station: WSW 26mi, 42km
Updated: Wed, 28-Oct-2020 5:15am CDT
NOT Current
Partly cloudy
Partly cloudy
 Wind from SW
Wind: SW 17 mph , 28 km/h, Gust: 23 mph , 37 km/h
Temperature: 32°F , 0°C
Wind Chill: 21°F , -6°C
Dew Point: 14°F , -10°C
Humidity: 47%
Barometer: 29.92 inHg , 1013.2 hPa
Clouds: Partly cloudy
Visibility: 10 miles , 16 km
Cloud details: Partly cloudy 7000 ft
2020/10/28 10:15 KATW 281015Z AUTO 23015G20KT 10SM SCT070 00/M10 A2992 RMK AO2
 
KMTW - Manitowac Muni, Wisconsin, USA
Distance from station: SE 29mi, 47km
Updated: Wed, 28-Oct-2020 4:56am CDT
NOT Current
Mostly cloudy
Mostly cloudy
 Wind from WSW
Wind: WSW 14 mph , 22 km/h, Gust: 22 mph , 35 km/h
Temperature: 34°F , 1°C
Wind Chill: 25°F , -4°C
Dew Point: 19°F , -7°C
Humidity: 56%
Barometer: 29.95 inHg , 1014.2 hPa
Clouds: Mostly cloudy
Visibility: 10 miles , 16 km
Cloud details: Mostly cloudy 10000 ft
2020/10/28 09:56 KMTW 280956Z AUTO 24012G19KT 10SM BKN100 01/M07 A2995 RMK AO2 SLP147 T00061067 FZRANO
KOCQ - Oconto, Wisconsin, USA
Distance from station: NNE 30mi, 49km
Updated: Wed, 28-Oct-2020 5:15am CDT
NOT Current
Overcast
Overcast
 Wind from WSW
Wind: WSW 16 mph , 26 km/h, Gust: 23 mph , 37 km/h
Temperature: 34°F , 1°C
Wind Chill: 24°F , -4°C
Dew Point: 19°F , -7°C
Humidity: 56%
Barometer: 29.89 inHg , 1012.2 hPa
Clouds: Overcast
Visibility: 10 miles , 16 km
Cloud details: Overcast 6000 ft
2020/10/28 10:15 KOCQ 281015Z AUTO 24014G20KT 10SM OVC060 01/M07 A2989 RMK AO1 T00081072
 
KEZS - Shawano Muni, Wisconsin, USA
Distance from station: NW 35mi, 56km
Updated: Wed, 28-Oct-2020 5:15am CDT
NOT Current
Overcast
Overcast
 Wind from SW
Wind: SW 12 mph , 19 km/h, Gust: 18 mph , 30 km/h
Temperature: 36°F , 2°C
Wind Chill: 28°F , -2°C
Dew Point: 21°F , -6°C
Humidity: 56%
Barometer: 29.89 inHg , 1012.2 hPa
Clouds: Overcast
Visibility: 10 miles , 16 km
Cloud details: Overcast 5500 ft
2020/10/28 10:15 KEZS 281015Z AUTO 23010G16KT 10SM OVC055 02/M06 A2989 RMK AO2 T00151065
KCLI - Clintonville, Wisconsin, USA
Distance from station: WNW 36mi, 58km
Updated: Wed, 28-Oct-2020 5:15am CDT
NOT Current
Mostly cloudy
Mostly cloudy
 Wind from WSW
Wind: WSW 10 mph , 17 km/h
Temperature: 32°F , 0°C
Wind Chill: 24°F , -4°C
Dew Point: 19°F , -7°C
Humidity: 60%
Barometer: 29.91 inHg , 1012.9 hPa
Clouds: Mostly cloudy
Visibility: 10 miles , 16 km
Cloud details: Mostly cloudy 6000 ft
2020/10/28 10:15 KCLI 281015Z AUTO 24009KT 10SM BKN060 00/M07 A2991 RMK AO2 T00021075
 
KOSH - Oshkosh, Wisconsin, USA
Distance from station: SW 41mi, 66km
Updated: Wed, 28-Oct-2020 4:53am CDT
NOT Current
Overcast
Overcast
 Wind from SSW
Wind: SSW 12 mph , 19 km/h, Gust: 22 mph , 35 km/h
Temperature: 30°F , -1°C
Wind Chill: 20°F , -7°C
Dew Point: 19°F , -7°C
Humidity: 64%
Barometer: 29.94 inHg , 1013.9 hPa
Clouds: Overcast
Visibility: 10 miles , 16 km
Cloud details: Overcast 7500 ft
2020/10/28 09:53 KOSH 280953Z AUTO 21010G19KT 10SM OVC075 M01/M07 A2994 RMK AO2 SLP149 T10061067
KSUE - Sturgeon Bay, Wisconsin, USA
Distance from station: NE 42mi, 68km
Updated: Wed, 28-Oct-2020 4:56am CDT
NOT Current
Overcast
Overcast
 Wind from SW
Wind: SW 14 mph , 22 km/h
Temperature: 36°F , 2°C
Wind Chill: 27°F , -3°C
Dew Point: 19°F , -7°C
Humidity: 52%
Barometer: 29.89 inHg , 1012.2 hPa
Clouds: Overcast
Visibility: 10 miles , 16 km
Cloud details: Overcast 7500 ft
2020/10/28 09:56 KSUE 280956Z AUTO 23012KT 10SM OVC075 02/M07 A2989 RMK AO2 SLP126 T00171067 FZRANO
 
KSBM - Sheboygan, Wisconsin, USA
Distance from station: SSE 46mi, 75km
Updated: Wed, 28-Oct-2020 4:53am CDT
NOT Current
Clear
Clear
 Wind from SW
Wind: SW 16 mph , 26 km/h
Temperature: 34°F , 1°C
Wind Chill: 24°F , -4°C
Dew Point: 19°F , -7°C
Humidity: 56%
Barometer: 29.96 inHg , 1014.6 hPa
Clouds: Clear
Visibility: 10 miles , 16 km
2020/10/28 09:53 KSBM 280953Z AUTO 23014KT 10SM CLR 01/M07 A2996 RMK AO2 SLP154 T00061067
KPCZ - Waupaca, Wisconsin, USA
Distance from station: W 48mi, 77km
Updated: Wed, 28-Oct-2020 5:15am CDT
NOT Current
Mostly cloudy
Mostly cloudy
 Wind from SSW
Wind: SSW 7 mph , 11 km/h
Temperature: 32°F , 0°C
Wind Chill: 25°F , -4°C
Dew Point: 19°F , -7°C
Humidity: 60%
Barometer: 29.94 inHg , 1013.9 hPa
Clouds: Mostly cloudy
Visibility: 10 miles , 16 km
Cloud details: Mostly cloudy 6000 ft
2020/10/28 10:15 KPCZ 281015Z AUTO 21006KT 10SM BKN060 00/M07 A2994 RMK AO2 T10011067